Latest Weather Observations for Emerald

IDQ60801

Issued at 4:02 pm EST Wednesday 2 September 2015 (issued every 30 minutes, with the page automatically refreshed every 10 minutes)

About weather observations | Map of weather stations | Latest weather observations for QLD | Other Formats
Station Details ID: 035264 Name: EMERALD AIRPORT Lat: -23.57 Lon: 148.18 Height: 189.4 m
Data from the previous 72 hours. | See also: Recent months at Emerald
Date/Time
EST
Temp
°C
App
Temp
°C
Dew
Point
Rel
Hum
%
Delta-T
°C
Wind Press
QNH
hPa
Press
MSL
hPa
Rain
since 9 am
mm
Dir
 
Spd
km/h
Gust
km/h
Spd
kts
Gust
kts
02/04:00pm 31.3 28.1 13.1 33 11.0 NNE 22 33 12 18 1011.4 - 0.0
02/03:30pm 31.2 27.8 12.5 31 11.1 N 22 33 12 18 1011.7 - 0.0
02/03:00pm 30.4 27.4 13.7 36 10.1 NNE 22 33 12 18 1012.0 1011.5 0.0
02/02:30pm 30.1 28.1 15.0 40 9.3 NNE 19 30 10 16 1012.9 - 0.0
02/02:00pm 29.1 26.8 14.1 40 9.1 N 19 30 10 16 1013.4 - 0.0
02/01:30pm 29.4 27.4 15.5 43 8.6 NNE 20 32 11 17 1014.1 - 0.0
02/01:00pm 27.9 25.4 15.2 46 7.8 NNE 22 32 12 17 1015.0 - 0.0
02/12:30pm 27.0 25.9 17.2 55 6.2 NNE 19 30 10 16 1015.9 - 0.0
02/12:00pm 26.3 25.2 17.4 58 5.6 NNE 19 28 10 15 1016.9 1016.4 0.0
02/11:30am 24.8 24.0 17.0 62 4.9 N 17 26 9 14 1017.6 - 0.0
02/11:00am 23.5 22.3 17.0 67 4.0 N 19 28 10 15 1018.1 - 0.0
02/10:30am 22.8 21.7 17.3 71 3.4 N 19 30 10 16 1018.6 - 0.0
02/10:00am 22.0 20.7 17.2 74 3.0 NNE 20 24 11 13 1018.9 - 0.0
02/09:30am 21.1 20.4 17.3 79 2.3 NNE 17 24 9 13 1019.3 - 0.0
02/09:00am 19.7 19.7 17.3 86 1.5 NE 13 17 7 9 1019.3 1018.7 0.0
02/08:30am 18.4 19.0 16.7 90 1.0 NNE 9 13 5 7 1019.4 - 0.0
02/08:00am 18.1 18.7 16.8 92 0.8 NE 9 13 5 7 1019.1 - 0.0
02/07:30am 17.7 17.7 17.1 96 0.4 NE 13 17 7 9 1018.5 - 0.0
02/07:00am 16.8 16.8 16.3 97 0.3 ENE 11 17 6 9 1018.2 - 0.0
02/06:30am 16.2 16.0 15.7 97 0.3 ENE 11 13 6 7 1018.2 - 0.0
02/06:00am 15.4 15.0 15.1 98 0.2 E 11 13 6 7 1017.9 1017.4 0.0
02/05:30am 14.6 14.3 14.3 98 0.2 E 9 11 5 6 1017.6 - 0.0
02/05:00am 13.4 13.0 12.9 97 0.3 E 7 9 4 5 1017.3 - 0.0
02/04:30am 13.4 12.6 12.9 97 0.3 E 9 11 5 6 1017.2 - 0.0
02/04:00am 13.6 12.9 13.1 97 0.3 E 9 11 5 6 1017.1 - 0.0
02/03:30am 13.4 12.5 12.6 95 0.4 E 9 11 5 6 1017.2 - 0.0
02/03:00am 13.4 11.9 11.8 90 0.9 ESE 11 13 6 7 1017.3 1016.8 0.0
02/02:30am 13.8 12.2 11.5 86 1.2 ESE 11 13 6 7 1017.2 - 0.0
02/02:00am 14.2 12.9 11.2 82 1.6 ESE 9 11 5 6 1016.9 - 0.0
02/01:30am 14.4 13.2 11.6 83 1.5 ESE 9 11 5 6 1016.8 - 0.0
02/01:00am 15.1 14.5 12.4 84 1.5 E 7 9 4 5 1016.7 - 0.0
02/12:30am 15.5 14.2 12.4 82 1.7 ENE 11 13 6 7 1016.5 - 0.0
02/12:00am 16.6 15.0 11.7 73 2.7 NE 11 13 6 7 1016.4 1015.9 0.0
 
Date/Time
EST
Temp
°C
App
Temp
°C
Dew
Point
Rel
Hum
%
Delta-T
°C
Wind Press
QNH
hPa
Press
MSL
hPa
Rain
since 9 am
mm
Dir
 
Spd
km/h
Gust
km/h
Spd
kts
Gust
kts
01/11:30pm 16.4 14.1 9.1 62 3.8 ENE 11 15 6 8 1016.4 - 0.0
01/11:00pm 16.0 13.4 7.7 58 4.2 ENE 11 13 6 7 1016.6 - 0.0
01/10:30pm 16.5 13.0 7.2 54 4.7 NE 15 17 8 9 1016.8 - 0.0
01/10:00pm 16.9 14.0 6.4 50 5.2 ESE 11 13 6 7 1016.4 - 0.0
01/09:30pm 17.5 14.8 5.8 46 5.8 ESE 9 11 5 6 1016.4 - 0.0
01/09:00pm 18.2 15.2 5.8 44 6.1 SE 11 13 6 7 1016.3 1015.8 0.0
01/08:30pm 17.7 15.0 7.2 50 5.3 ESE 11 13 6 7 1015.9 - 0.0
01/08:00pm 19.0 15.6 5.8 42 6.6 SE 13 17 7 9 1015.4 - 0.0
01/07:30pm 19.7 16.4 6.4 42 6.7 SE 13 15 7 8 1015.0 - 0.0
01/07:00pm 20.7 17.6 5.5 37 7.6 SE 11 13 6 7 1014.6 - 0.0
01/06:30pm 20.9 17.5 5.7 37 7.6 SE 13 15 7 8 1014.4 - 0.0
01/06:00pm 22.7 19.8 4.7 31 9.0 SE 9 11 5 6 1014.1 1013.5 0.0
01/05:30pm 25.1 21.6 3.7 25 10.6 SSE 11 15 6 8 1014.0 - 0.0
01/05:00pm 25.7 22.8 2.4 22 11.4 S 7 13 4 7 1013.9 - 0.0
01/04:30pm 26.6 23.3 2.5 21 11.8 W 9 15 5 8 1014.0 - 0.0
01/04:00pm 26.4 23.6 3.0 22 11.6 S 7 17 4 9 1014.0 - 0.0
01/03:30pm 26.3 23.3 2.3 21 11.7 NNW 7 19 4 10 1014.1 - 0.0
01/03:00pm 26.6 23.8 3.2 22 11.6 NE 7 13 4 7 1014.4 1013.8 0.0
01/02:30pm 26.1 21.8 3.4 23 11.3 ENE 15 22 8 12 1014.8 - 0.0
01/02:00pm 25.2 22.0 3.2 24 10.9 NNW 9 17 5 9 1015.4 - 0.0
01/01:30pm 24.2 20.8 4.0 27 10.0 ESE 11 20 6 11 1016.0 - 0.0
01/01:00pm 24.2 21.3 4.6 28 9.9 ENE 9 15 5 8 1016.5 - 0.0
01/12:30pm 23.5 20.1 4.0 28 9.6 E 11 17 6 9 1017.1 - 0.0
01/12:00pm 22.8 19.0 3.9 29 9.3 N 13 22 7 12 1018.0 1017.5 0.0
01/11:30am 23.0 19.6 4.0 29 9.4 E 11 17 6 9 1018.7 - 0.0
01/11:00am 21.2 16.9 3.0 30 8.7 E 15 24 8 13 1019.3 - 0.0
01/10:30am 20.2 17.2 2.1 30 8.4 SSE 7 19 4 10 1019.8 - 0.0
01/10:00am 19.8 16.6 3.1 33 7.9 E 9 15 5 8 1020.1 - 0.0
01/09:30am 18.8 15.7 3.4 36 7.3 E 9 13 5 7 1020.1 - 0.0
01/09:00am 17.8 14.6 2.9 37 6.9 E 9 17 5 9 1020.2 1019.6 0.0
01/08:30am 16.8 13.7 3.5 41 6.2 SE 9 13 5 7 1020.1 - 0.0
01/08:00am 15.2 11.7 3.7 46 5.3 SSE 11 15 6 8 1020.0 - 0.0
01/07:30am 13.2 10.3 4.4 55 4.1 SE 9 11 5 6 1019.6 - 0.0
01/07:00am 11.1 8.4 5.4 68 2.6 SSE 9 13 5 7 1019.0 - 0.0
01/06:30am 10.1 7.7 4.5 68 2.5 SSE 6 7 3 4 1018.8 - 0.0
01/06:00am 10.1 8.8 4.0 66 2.7 CALM 0 0 0 0 1018.5 1018.0 0.0
01/05:30am 10.4 9.1 4.3 66 2.7 CALM 0 0 0 0 1018.1 - 0.0
01/05:00am 9.9 7.1 5.1 72 2.2 S 9 11 5 6 1017.7 - 0.0
01/04:30am 10.0 7.2 5.0 71 2.3 S 9 9 5 5 1017.4 - 0.0
01/04:00am 10.9 9.9 5.4 69 2.5 CALM 0 0 0 0 1017.4 - 0.0
01/03:30am 11.6 10.4 4.8 63 3.1 CALM 0 0 0 0 1017.4 - 0.0
01/03:00am 11.7 9.2 4.7 62 3.2 SSE 7 9 4 5 1017.4 1016.9 0.0
01/02:30am 12.0 9.3 5.6 65 3.0 S 9 11 5 6 1017.2 - 0.0
01/02:00am 12.8 10.1 5.7 62 3.4 ESE 9 13 5 7 1017.2 - 0.0
01/01:30am 13.8 9.6 5.9 59 3.8 SSE 17 20 9 11 1017.1 - 0.0
01/01:00am 13.5 9.4 6.1 61 3.6 SSE 17 26 9 14 1017.2 - 0.0
01/12:30am 13.6 9.9 6.2 61 3.6 SSE 15 19 8 10 1017.4 - 0.0
01/12:00am 13.9 10.6 6.5 61 3.6 S 13 17 7 9 1017.3 1016.8 0.0
 
Date/Time
EST
Temp
°C
App
Temp
°C
Dew
Point
Rel
Hum
%
Delta-T
°C
Wind Press
QNH
hPa
Press
MSL
hPa
Rain
since 9 am
mm
Dir
 
Spd
km/h
Gust
km/h
Spd
kts
Gust
kts
31/11:30pm 14.5 11.2 6.6 59 3.9 S 13 17 7 9 1017.3 - 0.0
31/11:00pm 14.1 10.6 8.7 70 2.8 S 17 24 9 13 1017.3 - 0.0
31/10:30pm 15.7 14.2 8.4 62 3.7 WNW 6 7 3 4 1016.9 - 0.0
31/10:00pm 15.0 13.8 9.4 69 2.9 W 6 7 3 4 1016.9 - 0.0
31/09:30pm 16.6 16.2 8.3 58 4.3 CALM 0 0 0 0 1016.8 - 0.0
31/09:00pm 15.7 14.5 9.4 66 3.3 ENE 6 9 3 5 1016.6 1016.3 0.0
31/08:30pm 16.2 14.6 8.7 61 3.9 E 7 9 4 5 1016.5 - 0.0
31/08:00pm 17.3 15.3 7.1 51 5.1 SE 7 9 4 5 1016.5 - 0.0
31/07:30pm 17.6 14.8 7.1 50 5.3 S 11 11 6 6 1016.0 - 0.0
31/07:00pm 19.5 17.0 6.6 43 6.5 S 9 11 5 6 1015.8 - 0.0
31/06:30pm 20.5 17.6 4.9 36 7.7 SSW 9 11 5 6 1015.6 - 0.0
31/06:00pm 21.3 18.0 4.4 33 8.3 SSW 11 11 6 6 1015.4 1015.0 0.0
31/05:30pm 22.7 18.9 3.8 29 9.3 SSW 13 19 7 10 1015.2 - 0.0
31/05:00pm 23.6 19.3 3.5 27 9.9 SSW 15 20 8 11 1015.3 - 0.0
31/04:30pm 23.2 19.2 2.7 26 9.9 S 13 20 7 11 1015.2 - 0.0
31/04:00pm 23.5 20.5 4.0 28 9.6 E 9 13 5 7 1015.1 - 0.0
31/03:30pm 23.2 19.6 3.2 27 9.7 SW 11 22 6 12 1015.1 - 0.0
31/03:00pm 22.7 19.5 2.8 27 9.6 S 9 15 5 8 1015.5 1015.1 0.0
31/02:30pm 22.9 19.8 3.4 28 9.5 SW 9 17 5 9 1016.0 - 0.0
31/02:00pm 23.1 18.9 3.6 28 9.6 WSW 15 24 8 13 1016.2 - 0.0
31/01:30pm 22.8 19.8 4.3 30 9.2 WSW 9 20 5 11 1016.9 - 0.0
31/01:00pm 21.4 18.5 4.5 33 8.3 SSW 9 19 5 10 1017.4 - 0.0
31/12:30pm 21.4 18.5 4.5 33 8.3 SSE 9 17 5 9 1017.9 - 0.0
31/12:00pm 20.2 17.2 3.9 34 7.8 SE 9 20 5 11 1018.3 1018.0 0.0
31/11:30am 20.1 17.2 4.6 36 7.6 NE 9 15 5 8 1019.0 - 0.0
31/11:00am 19.1 16.2 4.5 38 7.1 SE 9 20 5 11 1019.7 - 0.0
31/10:30am 19.2 15.5 4.6 38 7.1 ESE 13 20 7 11 1019.9 - 0.0
31/10:00am 18.0 14.0 4.9 42 6.3 ESE 15 22 8 12 1020.3 - 0.0
31/09:30am 17.4 13.2 5.7 46 5.7 SE 17 22 9 12 1020.2 - 0.0
31/09:00am 16.2 12.0 5.5 49 5.2 SE 17 22 9 12 1020.3 1019.9 0.0
31/08:30am 15.4 11.3 6.1 54 4.5 SSE 17 22 9 12 1020.0 - 0.0
31/08:00am 14.1 11.0 5.5 56 4.1 ESE 11 19 6 10 1020.1 - 0.0
31/07:30am 12.6 10.7 6.6 67 2.9 ESE 6 9 3 5 1019.5 - 0.0
31/07:00am 11.4 9.3 6.7 73 2.3 SE 7 11 4 6 1019.1 - 0.0
31/06:30am 10.4 9.6 6.5 77 1.8 CALM 0 0 0 0 1018.8 - 0.0
31/06:00am 10.3 8.4 6.5 77 1.8 SSE 6 9 3 5 1018.3 1018.0 0.0
31/05:30am 10.7 8.6 6.6 76 1.9 SSE 7 9 4 5 1018.1 - 0.0
31/05:00am 11.1 8.2 6.6 74 2.1 S 11 15 6 8 1017.6 - 0.0
31/04:30am 11.3 9.2 6.8 74 2.2 S 7 11 4 6 1017.5 - 0.0
31/04:00am 11.7 8.9 7.0 73 2.3 S 11 13 6 7 1017.1 - 0.0
31/03:30am 12.3 9.9 7.0 70 2.6 SE 9 13 5 7 1017.4 - 0.0
31/03:00am 12.6 9.5 7.3 70 2.6 SSE 13 19 7 10 1017.4 1017.1 0.0
31/02:30am 12.6 9.1 7.3 70 2.6 SSE 15 20 8 11 1017.4 - 0.0
31/02:00am 13.1 9.2 7.3 68 2.8 SSE 17 20 9 11 1017.4 - 0.0
31/01:30am 13.5 10.0 7.3 66 3.1 S 15 19 8 10 1017.8 - 0.0
31/01:00am 14.0 10.5 7.3 64 3.3 SSE 15 20 8 11 1018.2 - 0.0
31/12:30am 14.6 11.1 7.4 62 3.6 SSE 15 20 8 11 1018.3 - 0.0
31/12:00am 15.2 11.7 7.2 59 4.0 S 15 19 8 10 1018.2 1017.9 0.0
 
Date/Time
EST
Temp
°C
App
Temp
°C
Dew
Point
Rel
Hum
%
Delta-T
°C
Wind Press
QNH
hPa
Press
MSL
hPa
Rain
since 9 am
mm
Dir
 
Spd
km/h
Gust
km/h
Spd
kts
Gust
kts
30/11:30pm 16.0 12.2 7.7 58 4.2 S 17 22 9 12 1018.3 - 0.0
30/11:00pm 15.7 12.7 9.4 66 3.3 S 15 17 8 9 1018.4 - 0.0
30/10:30pm 15.9 13.4 9.6 66 3.3 S 13 15 7 8 1018.3 - 0.0
30/10:00pm 15.8 13.6 9.2 65 3.4 S 11 15 6 8 1018.3 - 0.0
30/09:30pm 16.3 13.7 9.3 63 3.7 S 13 13 7 7 1018.3 - 0.0
30/09:00pm 17.1 14.9 9.5 61 4.0 S 11 15 6 8 1018.0 1017.7 0.0
30/08:30pm 17.6 16.0 10.2 62 4.0 S 9 11 5 6 1017.6 - 0.0
30/08:00pm 17.7 15.8 10.6 63 3.8 S 11 13 6 7 1017.3 - 0.0
30/07:30pm 18.3 16.6 11.1 63 3.9 S 11 13 6 7 1017.0 - 0.0
30/07:00pm 19.0 17.5 10.6 58 4.6 S 9 11 5 6 1016.6 - 0.0
30/06:30pm 20.5 18.7 9.4 49 6.0 S 9 11 5 6 1016.3 - 0.0
30/06:00pm 21.4 19.2 9.3 46 6.5 SSW 11 11 6 6 1016.0 1015.6 0.0
30/05:30pm 22.8 19.6 8.5 40 7.7 SSW 15 19 8 10 1015.7 - 0.0
30/05:00pm 23.8 20.2 8.2 37 8.4 SSW 17 24 9 13 1015.4 - 0.0
30/04:30pm 24.1 20.1 8.1 36 8.6 SSW 19 26 10 14 1015.2 - 0.0

Other Formats:

Comma delimited format used in spreadsheet applications
http://www.bom.gov.au/fwo/IDQ60801/IDQ60801.94363.axf

JavaScript Object Notation format (JSON) in row-major order
http://www.bom.gov.au/fwo/IDQ60801/IDQ60801.94363.json